Time;durP1;ratioP1;P1;durP2;ratioP2;P2;SDS_P1;SDS_P2;PMS_P1;PMS_P2;Temp;Humidity;BMP_temperature;BMP_pressure;BME280_temperature;BME280_humidity;BME280_pressure;Samples;Min_cycle;Max_cycle;Signal;HPM_P1;HPM_P2
2023/09/17 00:00:05;;;;;;;7.87;4.80;;;24.60;52.10;;;;;;351022;28;888;-54
2023/09/17 00:00:16;;;;;;;9.80;5.07;;;24.60;52.00;;;;;;351149;28;967;-54
2023/09/17 00:00:27;;;;;;;10.27;5.30;;;24.60;52.00;;;;;;351160;28;907;-54
2023/09/17 00:00:38;;;;;;;10.00;5.20;;;24.60;52.00;;;;;;350987;28;1118;-54
2023/09/17 00:00:50;;;;;;;8.52;5.40;;;24.60;52.10;;;;;;350999;28;1512;-54
2023/09/17 00:01:01;;;;;;;9.20;5.30;;;24.60;52.30;;;;;;351146;28;944;-54
2023/09/17 00:01:12;;;;;;;9.90;5.47;;;24.60;52.50;;;;;;351076;28;939;-54
2023/09/17 00:01:23;;;;;;;10.23;5.25;;;24.60;52.50;;;;;;351182;28;825;-54
2023/09/17 00:01:34;;;;;;;10.32;5.75;;;24.60;52.50;;;;;;351094;28;1359;-54
2023/09/17 00:01:46;;;;;;;9.88;5.63;;;24.60;52.70;;;;;;351019;28;1289;-53
2023/09/17 00:01:57;;;;;;;12.25;6.40;;;24.60;52.90;;;;;;351200;28;1087;-53
2023/09/17 00:02:08;;;;;;;11.95;6.40;;;24.60;53.00;;;;;;351211;28;868;-53
2023/09/17 00:02:20;;;;;;;11.13;6.30;;;24.60;53.30;;;;;;351013;28;979;-54
2023/09/17 00:02:31;;;;;;;10.00;6.18;;;24.60;53.30;;;;;;351121;28;1062;-54
2023/09/17 00:02:42;;;;;;;9.82;5.85;;;24.60;53.60;;;;;;351153;28;1050;-54
2023/09/17 00:02:52;;;;;;;9.23;5.57;;;24.60;54.10;;;;;;351019;28;1063;-53
2023/09/17 00:03:03;;;;;;;10.48;5.70;;;24.60;54.60;;;;;;351189;28;1007;-55
2023/09/17 00:03:14;;;;;;;12.02;6.10;;;24.60;54.80;;;;;;351102;28;976;-54
2023/09/17 00:03:25;;;;;;;11.77;6.47;;;24.60;54.60;;;;;;351032;28;964;-53
2023/09/17 00:03:37;;;;;;;12.45;6.63;;;24.60;54.50;;;;;;351205;28;930;-54
2023/09/17 00:03:48;;;;;;;12.20;6.50;;;24.60;54.70;;;;;;351136;28;980;-55
2023/09/17 00:04:00;;;;;;;13.18;6.80;;;24.60;55.20;;;;;;351042;28;984;-54
2023/09/17 00:04:11;;;;;;;12.25;6.45;;;24.60;55.50;;;;;;351182;28;952;-54
2023/09/17 00:04:23;;;;;;;11.32;6.25;;;24.60;55.70;;;;;;351040;28;1917;-55
2023/09/17 00:04:34;;;;;;;11.68;5.88;;;24.50;55.60;;;;;;351050;28;1103;-54
2023/09/17 00:04:45;;;;;;;11.90;6.15;;;24.60;55.50;;;;;;351185;28;899;-53
2023/09/17 00:04:55;;;;;;;12.52;6.53;;;24.60;55.70;;;;;;351188;28;876;-54
2023/09/17 00:05:07;;;;;;;12.13;6.63;;;24.50;56.00;;;;;;350968;28;1054;-53
2023/09/17 00:05:18;;;;;;;12.45;6.75;;;24.50;56.20;;;;;;351105;28;1019;-55
2023/09/17 00:05:29;;;;;;;11.07;6.57;;;24.60;56.60;;;;;;351146;28;801;-54
2023/09/17 00:05:39;;;;;;;10.23;6.35;;;24.50;56.30;;;;;;351021;28;1086;-55
2023/09/17 00:05:50;;;;;;;9.93;6.38;;;24.50;56.10;;;;;;351078;28;876;-53
2023/09/17 00:06:01;;;;;;;10.15;6.22;;;24.50;55.90;;;;;;351082;28;1652;-54
2023/09/17 00:06:12;;;;;;;10.68;6.93;;;24.50;55.80;;;;;;351131;28;975;-54
2023/09/17 00:06:22;;;;;;;10.57;6.87;;;24.50;55.90;;;;;;351035;28;1288;-53
2023/09/17 00:06:33;;;;;;;11.38;7.28;;;24.50;55.70;;;;;;351112;28;1003;-55
2023/09/17 00:06:44;;;;;;;10.77;6.65;;;24.50;55.60;;;;;;351118;28;908;-55
2023/09/17 00:06:55;;;;;;;9.90;6.57;;;24.50;55.70;;;;;;351032;28;984;-53
2023/09/17 00:07:05;;;;;;;9.03;6.50;;;24.50;55.80;;;;;;351056;28;1062;-55
2023/09/17 00:07:16;;;;;;;9.77;7.07;;;24.50;55.90;;;;;;351094;28;975;-54
2023/09/17 00:07:27;;;;;;;10.13;7.22;;;24.50;56.10;;;;;;351085;28;1028;-53
2023/09/17 00:07:37;;;;;;;9.70;6.97;;;24.40;55.90;;;;;;351104;28;1370;-54
2023/09/17 00:07:48;;;;;;;9.77;6.77;;;24.40;55.70;;;;;;350938;28;1154;-54
2023/09/17 00:07:59;;;;;;;11.55;7.15;;;24.40;56.00;;;;;;351092;28;825;-54
2023/09/17 00:08:09;;;;;;;13.00;7.57;;;24.40;56.30;;;;;;351071;28;1046;-53
2023/09/17 00:08:20;;;;;;;12.37;7.23;;;24.40;56.50;;;;;;351138;28;967;-54
2023/09/17 00:08:31;;;;;;;10.90;6.82;;;24.40;56.60;;;;;;351066;28;1612;-54
2023/09/17 00:08:42;;;;;;;10.35;6.72;;;24.40;56.60;;;;;;351017;28;971;-54
2023/09/17 00:08:53;;;;;;;10.38;6.53;;;24.40;56.80;;;;;;351086;28;1106;-54
2023/09/17 00:09:03;;;;;;;10.27;6.43;;;24.40;56.60;;;;;;351117;28;841;-54
2023/09/17 00:09:14;;;;;;;10.70;6.43;;;24.40;56.70;;;;;;351141;28;1019;-53
2023/09/17 00:09:25;;;;;;;10.68;6.32;;;24.40;56.80;;;;;;351144;28;1317;-53
2023/09/17 00:09:36;;;;;;;11.48;6.65;;;24.40;57.00;;;;;;350950;28;1526;-54
2023/09/17 00:09:46;;;;;;;11.55;7.05;;;24.40;57.10;;;;;;351052;28;1154;-53
2023/09/17 00:09:57;;;;;;;12.50;7.77;;;24.40;57.20;;;;;;351113;28;975;-54
2023/09/17 00:10:08;;;;;;;12.15;7.85;;;24.40;57.10;;;;;;351131;28;1789;-54
2023/09/17 00:10:19;;;;;;;11.93;7.57;;;24.40;57.10;;;;;;351069;28;1878;-54
2023/09/17 00:10:30;;;;;;;11.25;6.97;;;24.40;56.90;;;;;;351048;28;1914;-53
2023/09/17 00:10:43;;;;;;;11.93;6.93;;;24.40;56.70;;;;;;351079;28;919;-54
2023/09/17 00:10:54;;;;;;;10.48;6.50;;;24.40;56.60;;;;;;351108;28;1129;-54
2023/09/17 00:11:06;;;;;;;10.63;6.25;;;24.40;56.50;;;;;;351085;28;845;-55
2023/09/17 00:11:16;;;;;;;9.48;6.03;;;24.30;56.50;;;;;;351028;28;1427;-54
2023/09/17 00:11:27;;;;;;;11.10;6.18;;;24.40;56.60;;;;;;351164;28;817;-54
2023/09/17 00:11:38;;;;;;;10.85;6.50;;;24.40;56.80;;;;;;351089;28;853;-54
2023/09/17 00:11:49;;;;;;;11.13;6.70;;;24.40;56.90;;;;;;350999;28;1162;-54
2023/09/17 00:11:59;;;;;;;10.73;6.75;;;24.40;57.00;;;;;;350981;28;1007;-54
2023/09/17 00:12:10;;;;;;;11.88;6.82;;;24.30;57.20;;;;;;351183;28;934;-55
2023/09/17 00:12:21;;;;;;;10.35;6.30;;;24.30;57.30;;;;;;351075;28;1807;-54
2023/09/17 00:12:32;;;;;;;10.17;6.37;;;24.40;57.50;;;;;;351069;28;1062;-55
2023/09/17 00:12:43;;;;;;;10.30;6.43;;;24.30;57.60;;;;;;351053;28;1071;-55
2023/09/17 00:12:55;;;;;;;10.82;6.50;;;24.30;57.70;;;;;;350992;28;1099;-54
2023/09/17 00:13:06;;;;;;;10.20;6.32;;;24.40;57.80;;;;;;351137;28;976;-55
2023/09/17 00:13:16;;;;;;;12.77;6.97;;;24.30;57.70;;;;;;351062;28;1107;-54
2023/09/17 00:13:27;;;;;;;13.73;7.93;;;24.30;57.30;;;;;;351062;28;929;-54
2023/09/17 00:13:39;;;;;;;12.98;7.97;;;24.30;56.90;;;;;;351159;28;907;-54
2023/09/17 00:13:49;;;;;;;11.10;7.13;;;24.30;56.70;;;;;;351099;28;1119;-54
2023/09/17 00:14:00;;;;;;;12.20;7.00;;;24.30;56.40;;;;;;350973;28;1070;-56
2023/09/17 00:14:11;;;;;;;12.73;6.53;;;24.30;56.40;;;;;;351074;28;1143;-55
2023/09/17 00:14:22;;;;;;;11.82;6.10;;;24.30;56.20;;;;;;351072;28;1011;-54
2023/09/17 00:14:33;;;;;;;9.48;5.68;;;24.30;56.20;;;;;;351018;28;967;-54
2023/09/17 00:14:43;;;;;;;8.47;5.70;;;24.30;56.30;;;;;;351146;28;1003;-54
2023/09/17 00:14:54;;;;;;;7.72;5.78;;;24.30;56.20;;;;;;351033;28;1083;-54
2023/09/17 00:15:06;;;;;;;8.43;6.05;;;24.30;55.90;;;;;;351031;28;976;-53
2023/09/17 00:15:17;;;;;;;11.32;6.47;;;24.40;55.70;;;;;;351028;28;1091;-54
2023/09/17 00:15:27;;;;;;;12.95;7.20;;;24.40;55.50;;;;;;351066;28;1074;-53
2023/09/17 00:15:38;;;;;;;12.27;7.50;;;24.30;55.60;;;;;;351081;28;902;-54
2023/09/17 00:15:49;;;;;;;12.23;7.15;;;24.30;55.60;;;;;;351084;28;1119;-54
2023/09/17 00:16:00;;;;;;;10.27;6.07;;;24.30;55.40;;;;;;351096;28;1597;-54
2023/09/17 00:16:11;;;;;;;10.90;5.70;;;24.30;55.30;;;;;;351033;28;1074;-54
2023/09/17 00:16:22;;;;;;;10.40;5.65;;;24.30;54.80;;;;;;351064;28;1301;-56
2023/09/17 00:16:32;;;;;;;11.40;5.78;;;24.30;54.70;;;;;;351097;28;1192;-54
2023/09/17 00:16:43;;;;;;;11.02;5.78;;;24.30;55.00;;;;;;350928;28;1458;-55
2023/09/17 00:16:54;;;;;;;10.23;5.77;;;24.30;55.00;;;;;;351045;28;1594;-54
2023/09/17 00:17:05;;;;;;;9.32;5.70;;;24.30;55.00;;;;;;351009;28;1556;-54
2023/09/17 00:17:15;;;;;;;10.05;5.43;;;24.30;55.00;;;;;;350964;28;976;-53
2023/09/17 00:17:26;;;;;;;10.90;5.43;;;24.30;55.10;;;;;;351116;28;979;-53
2023/09/17 00:17:37;;;;;;;10.07;5.30;;;24.30;55.40;;;;;;351116;28;959;-54
2023/09/17 00:17:48;;;;;;;9.52;5.80;;;24.30;55.60;;;;;;350996;28;1844;-54
2023/09/17 00:17:59;;;;;;;9.45;5.88;;;24.30;55.90;;;;;;351111;28;2062;-54
2023/09/17 00:18:09;;;;;;;9.57;5.72;;;24.30;56.00;;;;;;351075;28;1003;-54
2023/09/17 00:18:20;;;;;;;8.35;5.30;;;24.30;55.90;;;;;;351100;28;884;-54
2023/09/17 00:18:31;;;;;;;9.87;5.10;;;24.30;55.70;;;;;;351088;28;917;-54
2023/09/17 00:18:42;;;;;;;9.50;5.25;;;24.30;55.60;;;;;;350944;28;1162;-54
2023/09/17 00:18:52;;;;;;;10.43;5.32;;;24.30;55.50;;;;;;351020;28;1103;-54
2023/09/17 00:19:03;;;;;;;8.35;5.20;;;24.30;55.30;;;;;;351047;28;987;-54
2023/09/17 00:19:14;;;;;;;8.57;5.15;;;24.30;55.10;;;;;;351005;28;967;-54
2023/09/17 00:19:26;;;;;;;9.98;5.18;;;24.30;55.20;;;;;;350860;28;1512;-54
2023/09/17 00:19:37;;;;;;;12.57;5.30;;;24.30;55.10;;;;;;350846;28;1173;-54
2023/09/17 00:19:48;;;;;;;13.88;5.60;;;24.30;54.90;;;;;;350946;28;897;-54
2023/09/17 00:19:58;;;;;;;10.93;5.70;;;24.30;55.20;;;;;;350947;28;1158;-53
2023/09/17 00:20:10;;;;;;;10.23;5.55;;;24.20;55.60;;;;;;351093;28;959;-54
2023/09/17 00:20:22;;;;;;;9.57;5.55;;;24.20;56.00;;;;;;351143;28;1079;-54
2023/09/17 00:20:33;;;;;;;9.95;5.72;;;24.20;56.20;;;;;;351040;28;899;-53
2023/09/17 00:20:43;;;;;;;9.73;5.80;;;24.20;56.20;;;;;;351055;28;883;-54
2023/09/17 00:20:54;;;;;;;10.27;5.85;;;24.20;56.30;;;;;;351086;28;925;-54
2023/09/17 00:21:06;;;;;;;9.53;5.77;;;24.20;56.70;;;;;;351038;28;1360;-54
2023/09/17 00:21:16;;;;;;;9.43;5.60;;;24.30;56.80;;;;;;351134;28;917;-54
2023/09/17 00:21:27;;;;;;;8.60;5.35;;;24.30;56.60;;;;;;351080;28;908;-54
2023/09/17 00:21:38;;;;;;;10.23;5.57;;;24.20;56.40;;;;;;351106;28;1058;-54
2023/09/17 00:21:51;;;;;;;9.90;5.72;;;24.20;56.30;;;;;;351108;28;852;-54
2023/09/17 00:22:03;;;;;;;9.00;5.47;;;24.20;56.30;;;;;;351055;28;1106;-55
2023/09/17 00:22:14;;;;;;;9.13;5.47;;;24.20;56.10;;;;;;351076;28;995;-54
2023/09/17 00:22:25;;;;;;;9.75;5.72;;;24.20;56.00;;;;;;351012;28;1061;-53
2023/09/17 00:22:36;;;;;;;9.60;5.78;;;24.20;56.00;;;;;;351123;28;889;-55
2023/09/17 00:22:47;;;;;;;8.30;5.43;;;24.20;55.70;;;;;;351097;28;1019;-53
2023/09/17 00:22:59;;;;;;;7.90;5.13;;;24.20;55.30;;;;;;351062;28;1120;-54
2023/09/17 00:23:10;;;;;;;7.10;4.60;;;24.20;54.60;;;;;;351070;28;1245;-54
2023/09/17 00:23:21;;;;;;;7.43;4.57;;;24.20;54.60;;;;;;350990;28;1643;-54
2023/09/17 00:23:31;;;;;;;7.90;4.83;;;24.20;54.50;;;;;;351113;28;967;-54
2023/09/17 00:23:42;;;;;;;9.57;5.00;;;24.20;54.60;;;;;;351089;28;817;-54
2023/09/17 00:23:53;;;;;;;8.95;5.32;;;24.20;54.70;;;;;;351051;28;1082;-54
2023/09/17 00:24:04;;;;;;;9.48;5.10;;;24.20;54.80;;;;;;350999;28;2428;-54
2023/09/17 00:24:14;;;;;;;8.73;4.95;;;24.20;54.80;;;;;;351043;28;984;-54
2023/09/17 00:24:25;;;;;;;7.97;4.73;;;24.20;54.70;;;;;;350955;28;1974;-54
2023/09/17 00:24:36;;;;;;;7.03;4.80;;;24.20;54.70;;;;;;351074;28;794;-54
2023/09/17 00:24:46;;;;;;;6.68;4.85;;;24.10;54.70;;;;;;351057;28;940;-53
2023/09/17 00:24:57;;;;;;;7.00;4.65;;;24.20;54.70;;;;;;351142;28;885;-54
2023/09/17 00:25:08;;;;;;;7.13;5.03;;;24.20;54.70;;;;;;350965;28;1010;-54
2023/09/17 00:25:19;;;;;;;8.43;5.65;;;24.20;54.80;;;;;;351125;28;1068;-54
2023/09/17 00:25:30;;;;;;;8.40;5.93;;;24.20;54.90;;;;;;351041;28;1074;-54
2023/09/17 00:25:41;;;;;;;8.75;5.70;;;24.20;54.70;;;;;;351080;28;1166;-54
2023/09/17 00:25:51;;;;;;;6.90;4.95;;;24.20;54.80;;;;;;351097;28;1011;-54
2023/09/17 00:26:03;;;;;;;6.68;4.65;;;24.20;54.40;;;;;;351046;28;1106;-54
2023/09/17 00:26:14;;;;;;;7.10;4.68;;;24.20;54.30;;;;;;351126;28;964;-55
2023/09/17 00:26:24;;;;;;;7.65;4.90;;;24.20;54.50;;;;;;351059;28;1058;-55
2023/09/17 00:26:35;;;;;;;7.90;4.93;;;24.10;54.80;;;;;;351054;28;1031;-55
2023/09/17 00:26:46;;;;;;;7.10;4.63;;;24.20;54.70;;;;;;351042;28;995;-54
2023/09/17 00:26:56;;;;;;;7.45;4.82;;;24.10;54.60;;;;;;351068;28;892;-54
2023/09/17 00:27:08;;;;;;;7.40;5.15;;;24.20;54.50;;;;;;351100;28;995;-54
2023/09/17 00:27:19;;;;;;;7.60;5.40;;;24.10;54.40;;;;;;351082;28;908;-55
2023/09/17 00:27:30;;;;;;;6.80;5.15;;;24.20;54.40;;;;;;351146;28;891;-53
2023/09/17 00:27:40;;;;;;;7.32;4.97;;;24.20;54.30;;;;;;350992;28;1153;-55
2023/09/17 00:27:52;;;;;;;6.85;4.72;;;24.20;54.30;;;;;;351052;28;1091;-52
2023/09/17 00:28:03;;;;;;;7.97;4.93;;;24.10;54.50;;;;;;351124;28;876;-54
2023/09/17 00:28:14;;;;;;;8.35;4.93;;;24.20;54.90;;;;;;351087;28;1730;-54
2023/09/17 00:28:25;;;;;;;9.25;5.35;;;24.10;55.30;;;;;;350994;28;920;-54
2023/09/17 00:28:36;;;;;;;9.30;5.20;;;24.10;56.20;;;;;;351108;28;1314;-55
2023/09/17 00:28:46;;;;;;;7.80;4.85;;;24.10;56.40;;;;;;351038;28;1367;-55
2023/09/17 00:28:57;;;;;;;7.53;4.72;;;24.10;56.30;;;;;;351016;28;1049;-55
2023/09/17 00:29:08;;;;;;;8.37;4.90;;;24.10;56.00;;;;;;351093;28;1057;-55
2023/09/17 00:29:18;;;;;;;9.35;4.82;;;24.10;55.60;;;;;;351100;28;1015;-54
2023/09/17 00:29:29;;;;;;;8.70;4.70;;;24.10;55.20;;;;;;350984;28;1757;-54
2023/09/17 00:29:40;;;;;;;7.20;4.78;;;24.10;54.90;;;;;;351093;28;845;-54
2023/09/17 00:29:50;;;;;;;6.87;4.87;;;24.10;54.80;;;;;;350981;28;1106;-54
2023/09/17 00:30:01;;;;;;;6.75;4.78;;;24.10;55.00;;;;;;350954;28;1373;-54
2023/09/17 00:30:13;;;;;;;7.80;4.45;;;24.10;55.10;;;;;;350988;28;1518;-54
2023/09/17 00:30:24;;;;;;;8.50;4.50;;;24.10;55.30;;;;;;351039;28;1620;-56
2023/09/17 00:30:35;;;;;;;7.57;4.43;;;24.10;55.40;;;;;;351032;28;878;-55
2023/09/17 00:30:45;;;;;;;6.43;4.43;;;24.10;55.50;;;;;;351026;28;1212;-54
2023/09/17 00:30:56;;;;;;;7.80;4.65;;;24.10;55.70;;;;;;351137;28;833;-55
2023/09/17 00:31:07;;;;;;;8.65;4.82;;;24.10;55.80;;;;;;350959;28;1015;-55
2023/09/17 00:31:17;;;;;;;9.93;4.72;;;24.10;56.10;;;;;;351087;28;864;-55
2023/09/17 00:31:28;;;;;;;10.50;4.70;;;24.10;55.70;;;;;;351120;28;904;-54
2023/09/17 00:31:39;;;;;;;9.65;4.60;;;24.10;55.70;;;;;;351027;28;991;-54
2023/09/17 00:31:50;;;;;;;10.85;4.90;;;24.10;55.80;;;;;;351053;28;1091;-54
2023/09/17 00:32:00;;;;;;;9.20;5.28;;;24.10;56.10;;;;;;351044;28;817;-55
2023/09/17 00:32:11;;;;;;;8.93;5.10;;;24.10;55.60;;;;;;350965;28;994;-55
2023/09/17 00:32:22;;;;;;;7.53;4.97;;;24.00;54.80;;;;;;351132;28;1007;-55
2023/09/17 00:32:32;;;;;;;7.05;4.53;;;24.00;54.70;;;;;;351053;28;878;-55
2023/09/17 00:32:44;;;;;;;7.57;4.60;;;24.00;54.50;;;;;;350973;28;1094;-55
2023/09/17 00:32:54;;;;;;;8.20;4.80;;;24.00;54.60;;;;;;351085;28;1078;-54
2023/09/17 00:33:05;;;;;;;8.73;4.87;;;24.00;54.70;;;;;;351104;28;1222;-55
2023/09/17 00:33:16;;;;;;;9.23;5.10;;;24.00;54.30;;;;;;350979;28;1450;-54
2023/09/17 00:33:26;;;;;;;9.80;5.13;;;24.00;54.30;;;;;;350958;28;1035;-54
2023/09/17 00:33:37;;;;;;;9.40;5.23;;;23.90;54.70;;;;;;351053;28;936;-54
2023/09/17 00:33:48;;;;;;;8.27;5.22;;;23.90;55.30;;;;;;351072;28;987;-54
2023/09/17 00:33:58;;;;;;;7.55;5.22;;;24.00;55.90;;;;;;351064;28;1905;-56
2023/09/17 00:34:09;;;;;;;7.05;5.30;;;24.00;56.10;;;;;;351045;28;1028;-55
2023/09/17 00:34:20;;;;;;;7.05;5.55;;;23.90;56.10;;;;;;350877;28;1742;-54
2023/09/17 00:34:31;;;;;;;7.50;5.60;;;24.00;56.20;;;;;;351027;28;1178;-54
2023/09/17 00:34:41;;;;;;;7.72;5.50;;;23.90;56.60;;;;;;351071;28;1372;-54
2023/09/17 00:34:53;;;;;;;7.18;5.07;;;24.00;56.60;;;;;;350946;28;956;-54
2023/09/17 00:35:04;;;;;;;6.68;4.82;;;23.90;56.20;;;;;;351107;28;1121;-55
2023/09/17 00:35:15;;;;;;;7.25;4.70;;;23.90;55.80;;;;;;351101;28;1128;-54
2023/09/17 00:35:26;;;;;;;8.30;4.95;;;23.90;55.70;;;;;;351002;28;879;-54
2023/09/17 00:35:37;;;;;;;8.63;5.13;;;23.90;55.90;;;;;;350975;28;1614;-54
2023/09/17 00:35:48;;;;;;;7.97;5.20;;;23.90;56.00;;;;;;351024;28;1115;-54
2023/09/17 00:35:59;;;;;;;7.32;5.10;;;24.00;56.30;;;;;;351104;28;1456;-54
2023/09/17 00:36:09;;;;;;;7.38;4.97;;;23.90;56.70;;;;;;350993;28;910;-54
2023/09/17 00:36:20;;;;;;;8.85;5.10;;;23.90;56.60;;;;;;351140;28;802;-55
2023/09/17 00:36:31;;;;;;;9.90;5.23;;;23.90;56.00;;;;;;351057;28;2431;-54
2023/09/17 00:36:41;;;;;;;9.32;4.95;;;23.90;55.50;;;;;;351051;28;877;-54
2023/09/17 00:36:52;;;;;;;8.10;5.03;;;23.90;55.30;;;;;;351014;28;979;-54
2023/09/17 00:37:03;;;;;;;8.63;5.13;;;23.90;55.70;;;;;;351030;28;976;-54
2023/09/17 00:37:14;;;;;;;10.03;5.53;;;23.90;56.60;;;;;;351070;28;1010;-53
2023/09/17 00:37:24;;;;;;;9.70;5.53;;;23.90;57.00;;;;;;351062;28;1007;-53
2023/09/17 00:37:35;;;;;;;8.30;5.40;;;23.90;56.60;;;;;;350928;28;1166;-54
2023/09/17 00:37:46;;;;;;;8.20;5.05;;;23.90;55.90;;;;;;351039;28;1055;-54
2023/09/17 00:37:56;;;;;;;7.67;4.80;;;23.90;55.90;;;;;;350997;28;1103;-54
2023/09/17 00:38:09;;;;;;;8.20;5.00;;;23.90;55.70;;;;;;351046;28;1289;-54
2023/09/17 00:38:20;;;;;;;8.50;5.57;;;23.90;55.50;;;;;;350937;28;1362;-54
2023/09/17 00:38:30;;;;;;;8.57;5.53;;;23.90;55.30;;;;;;350963;28;1466;-54
2023/09/17 00:38:41;;;;;;;8.38;5.57;;;23.90;55.30;;;;;;351048;28;1373;-54
2023/09/17 00:38:52;;;;;;;9.45;5.65;;;23.90;55.40;;;;;;350906;28;1130;-54
2023/09/17 00:39:04;;;;;;;9.23;5.32;;;23.90;55.90;;;;;;351066;28;1004;-55
2023/09/17 00:39:14;;;;;;;9.35;5.13;;;23.90;56.00;;;;;;351084;28;844;-54
2023/09/17 00:39:25;;;;;;;8.85;4.95;;;23.90;55.80;;;;;;350949;28;988;-55
2023/09/17 00:39:36;;;;;;;9.02;5.10;;;23.90;55.60;;;;;;351090;28;864;-53
2023/09/17 00:39:47;;;;;;;8.05;4.90;;;23.90;55.30;;;;;;351155;28;925;-53
2023/09/17 00:39:57;;;;;;;8.13;4.87;;;23.90;55.30;;;;;;350994;28;1004;-54
2023/09/17 00:40:11;;;;;;;8.90;5.40;;;23.90;55.50;;;;;;351058;28;923;-54
2023/09/17 00:40:25;;;;;;;9.00;5.43;;;23.90;55.50;;;;;;350987;28;1007;-54
2023/09/17 00:40:37;;;;;;;8.68;5.03;;;23.90;55.80;;;;;;351040;28;920;-54
2023/09/17 00:40:48;;;;;;;9.15;5.28;;;23.90;56.10;;;;;;350979;28;1038;-53
2023/09/17 00:41:00;;;;;;;9.55;5.40;;;23.80;56.40;;;;;;350993;28;1208;-53
2023/09/17 00:41:12;;;;;;;8.95;5.40;;;23.90;56.60;;;;;;351034;28;1253;-55
2023/09/17 00:41:23;;;;;;;7.95;5.07;;;23.80;56.50;;;;;;350988;28;1197;-54
2023/09/17 00:41:33;;;;;;;7.50;5.05;;;23.90;56.00;;;;;;351069;28;881;-54
2023/09/17 00:41:44;;;;;;;6.43;4.80;;;23.80;55.60;;;;;;351038;28;1310;-53
2023/09/17 00:41:55;;;;;;;6.78;4.78;;;23.80;55.60;;;;;;350954;28;952;-55
2023/09/17 00:42:06;;;;;;;6.95;4.70;;;23.90;55.90;;;;;;351002;28;1924;-54
2023/09/17 00:42:17;;;;;;;7.30;4.65;;;23.80;56.20;;;;;;351097;28;1038;-55
2023/09/17 00:42:27;;;;;;;7.65;4.60;;;23.90;56.30;;;;;;350965;28;1174;-53
2023/09/17 00:42:40;;;;;;;7.85;4.82;;;23.80;56.60;;;;;;351072;28;869;-54
2023/09/17 00:42:51;;;;;;;8.60;4.68;;;23.80;56.70;;;;;;351037;28;1007;-54
2023/09/17 00:43:02;;;;;;;8.25;4.47;;;23.80;56.80;;;;;;350985;28;902;-53
2023/09/17 00:43:13;;;;;;;7.28;4.30;;;23.80;56.70;;;;;;351104;28;1150;-54
2023/09/17 00:43:24;;;;;;;7.05;4.20;;;23.80;56.60;;;;;;351064;28;1000;-53
2023/09/17 00:43:35;;;;;;;7.15;4.43;;;23.90;56.60;;;;;;350871;28;1147;-54
2023/09/17 00:43:46;;;;;;;7.00;4.50;;;23.80;56.60;;;;;;351119;28;975;-54
2023/09/17 00:43:57;;;;;;;7.45;4.38;;;23.80;56.80;;;;;;350956;28;1035;-54
2023/09/17 00:44:08;;;;;;;8.10;4.23;;;23.80;56.70;;;;;;350971;28;940;-54
2023/09/17 00:44:20;;;;;;;8.70;4.40;;;23.80;56.60;;;;;;351015;28;1909;-54
2023/09/17 00:44:30;;;;;;;9.63;4.72;;;23.80;56.80;;;;;;351077;28;1050;-53
2023/09/17 00:44:41;;;;;;;9.15;4.57;;;23.80;57.00;;;;;;350884;28;1820;-54
2023/09/17 00:44:52;;;;;;;8.97;4.70;;;23.80;57.00;;;;;;351027;28;1167;-54
2023/09/17 00:45:04;;;;;;;8.00;4.77;;;23.80;57.10;;;;;;351049;28;1024;-54
2023/09/17 00:45:15;;;;;;;6.60;4.90;;;23.80;57.30;;;;;;350983;28;1111;-54
2023/09/17 00:45:26;;;;;;;6.25;4.57;;;23.80;56.60;;;;;;351077;28;834;-54
2023/09/17 00:45:38;;;;;;;7.10;4.38;;;23.80;56.20;;;;;;351118;28;1074;-53
2023/09/17 00:45:49;;;;;;;7.10;4.47;;;23.80;56.30;;;;;;350939;28;1135;-54
2023/09/17 00:46:00;;;;;;;6.77;4.67;;;23.80;56.50;;;;;;351041;28;821;-54
2023/09/17 00:46:13;;;;;;;6.70;4.80;;;23.70;56.50;;;;;;351076;28;1101;-53
2023/09/17 00:46:23;;;;;;;7.05;4.95;;;23.70;56.30;;;;;;351049;28;955;-54
2023/09/17 00:46:35;;;;;;;7.60;5.13;;;23.70;56.30;;;;;;351067;28;920;-54
2023/09/17 00:46:47;;;;;;;8.30;5.22;;;23.70;56.40;;;;;;350988;28;1201;-54
2023/09/17 00:47:00;;;;;;;8.05;4.70;;;23.70;56.30;;;;;;351055;28;869;-54
2023/09/17 00:47:12;;;;;;;6.65;4.03;;;23.80;56.10;;;;;;350965;28;1007;-54
2023/09/17 00:47:23;;;;;;;8.30;4.40;;;23.70;56.30;;;;;;351110;28;919;-54
2023/09/17 00:47:34;;;;;;;7.57;4.70;;;23.70;56.50;;;;;;350978;28;1012;-54
2023/09/17 00:47:45;;;;;;;7.43;4.72;;;23.70;56.30;;;;;;351024;28;988;-54
2023/09/17 00:47:56;;;;;;;8.02;4.57;;;23.70;56.10;;;;;;350932;28;1146;-54
2023/09/17 00:48:07;;;;;;;8.52;4.55;;;23.70;55.90;;;;;;351098;28;841;-53
2023/09/17 00:48:18;;;;;;;8.50;4.57;;;23.70;55.90;;;;;;351074;28;1102;-54
2023/09/17 00:48:31;;;;;;;9.05;4.90;;;23.70;55.90;;;;;;350984;28;1030;-55
2023/09/17 00:48:42;;;;;;;9.68;5.07;;;23.70;56.20;;;;;;350990;28;1273;-54
2023/09/17 00:48:53;;;;;;;8.88;4.75;;;23.70;55.90;;;;;;351027;28;916;-54
2023/09/17 00:49:12;;;;;;;8.70;4.90;;;23.70;55.80;;;;;;351008;28;1418;-54
2023/09/17 00:49:23;;;;;;;8.30;5.22;;;23.70;55.90;;;;;;351016;28;857;-54
2023/09/17 00:49:34;;;;;;;8.73;5.10;;;23.60;56.10;;;;;;351086;28;1086;-54
2023/09/17 00:49:45;;;;;;;9.82;4.82;;;23.70;56.20;;;;;;351055;28;1200;-54
2023/09/17 00:49:56;;;;;;;9.27;4.57;;;23.70;56.30;;;;;;351081;28;801;-54
2023/09/17 00:50:10;;;;;;;7.57;4.45;;;23.70;55.80;;;;;;351013;28;999;-54
2023/09/17 00:50:21;;;;;;;6.50;4.32;;;23.70;55.70;;;;;;351060;28;1135;-54
2023/09/17 00:50:33;;;;;;;5.90;4.35;;;23.70;55.60;;;;;;351052;28;915;-54
2023/09/17 00:50:44;;;;;;;6.75;4.50;;;23.70;55.40;;;;;;351050;28;1197;-53
2023/09/17 00:50:55;;;;;;;8.13;4.53;;;23.60;55.30;;;;;;350991;28;1051;-54
2023/09/17 00:51:06;;;;;;;8.07;4.40;;;23.70;55.00;;;;;;351076;28;943;-54
2023/09/17 00:51:17;;;;;;;8.43;4.38;;;23.60;54.90;;;;;;350999;28;1035;-54
2023/09/17 00:51:27;;;;;;;7.70;4.60;;;23.70;54.90;;;;;;351011;28;1042;-53
2023/09/17 00:51:39;;;;;;;8.30;4.60;;;23.60;54.80;;;;;;351001;28;895;-54
2023/09/17 00:51:50;;;;;;;7.00;4.55;;;23.70;55.10;;;;;;351065;28;1027;-55
2023/09/17 00:52:06;;;;;;;7.47;4.70;;;23.60;55.30;;;;;;351108;28;821;-53
2023/09/17 00:52:20;;;;;;;7.68;4.68;;;23.60;55.30;;;;;;351032;28;1067;-53
2023/09/17 00:52:33;;;;;;;6.28;4.22;;;23.60;55.30;;;;;;350988;28;1062;-54
2023/09/17 00:52:45;;;;;;;5.85;4.10;;;23.60;54.80;;;;;;351022;28;1544;-54
2023/09/17 00:52:56;;;;;;;5.68;4.20;;;23.60;54.40;;;;;;351052;28;1077;-54
2023/09/17 00:53:07;;;;;;;6.32;4.50;;;23.60;54.30;;;;;;351001;28;1275;-54
2023/09/17 00:53:18;;;;;;;7.35;4.57;;;23.60;54.10;;;;;;351023;28;1014;-53
2023/09/17 00:53:29;;;;;;;7.43;4.50;;;23.60;54.10;;;;;;351051;28;840;-53
2023/09/17 00:53:40;;;;;;;6.97;4.33;;;23.60;54.00;;;;;;350952;28;1098;-53
2023/09/17 00:53:55;;;;;;;6.40;4.22;;;23.60;54.30;;;;;;351002;28;1941;-53
2023/09/17 00:54:07;;;;;;;6.25;4.20;;;23.60;54.40;;;;;;350953;28;1083;-53
2023/09/17 00:54:21;;;;;;;6.30;4.50;;;23.60;55.00;;;;;;351030;28;1197;-54
2023/09/17 00:54:31;;;;;;;6.20;4.55;;;23.60;55.40;;;;;;350967;28;999;-55
2023/09/17 00:54:44;;;;;;;6.32;4.55;;;23.60;56.00;;;;;;351014;28;1126;-54
2023/09/17 00:54:56;;;;;;;7.60;4.57;;;23.60;55.90;;;;;;350967;28;864;-54
2023/09/17 00:55:08;;;;;;;7.78;4.55;;;23.60;55.80;;;;;;351031;28;1130;-53
2023/09/17 00:55:19;;;;;;;6.95;4.47;;;23.60;55.90;;;;;;350928;28;1498;-54
2023/09/17 00:55:30;;;;;;;6.35;4.40;;;23.60;55.90;;;;;;351044;28;983;-54
2023/09/17 00:55:41;;;;;;;7.65;4.53;;;23.60;55.80;;;;;;351019;28;1070;-53
2023/09/17 00:55:52;;;;;;;9.25;4.95;;;23.60;55.80;;;;;;351053;28;983;-53
2023/09/17 00:56:03;;;;;;;9.02;4.97;;;23.60;55.80;;;;;;351053;28;884;-53
2023/09/17 00:56:15;;;;;;;7.57;4.72;;;23.60;55.90;;;;;;350996;28;976;-53
2023/09/17 00:56:26;;;;;;;7.70;4.53;;;23.60;56.10;;;;;;351047;28;1796;-53
2023/09/17 00:56:37;;;;;;;7.35;4.32;;;23.60;56.20;;;;;;350978;28;994;-54
2023/09/17 00:56:50;;;;;;;7.75;4.53;;;23.60;56.10;;;;;;350972;28;1174;-54
2023/09/17 00:57:02;;;;;;;6.55;4.45;;;23.60;56.10;;;;;;350944;28;1172;-54
2023/09/17 00:57:17;;;;;;;6.25;4.53;;;23.60;56.10;;;;;;351038;28;1030;-53
2023/09/17 00:57:28;;;;;;;6.10;4.13;;;23.60;55.60;;;;;;350991;28;999;-53
2023/09/17 00:57:41;;;;;;;6.38;4.05;;;23.60;55.20;;;;;;350980;28;1146;-53
2023/09/17 00:57:52;;;;;;;7.06;4.24;;;23.60;55.10;;;;;;350966;28;958;-53
2023/09/17 00:58:04;;;;;;;7.67;4.13;;;23.60;55.10;;;;;;351073;28;1014;-53
2023/09/17 00:58:15;;;;;;;7.82;4.13;;;23.60;55.40;;;;;;351115;28;979;-53
2023/09/17 00:58:28;;;;;;;6.72;3.97;;;23.60;55.60;;;;;;350947;28;1050;-53
2023/09/17 00:58:40;;;;;;;7.95;4.20;;;23.60;55.80;;;;;;351066;28;1011;-53
2023/09/17 00:58:52;;;;;;;7.78;4.13;;;23.60;56.10;;;;;;351040;28;884;-53
2023/09/17 00:59:05;;;;;;;7.68;4.53;;;23.60;56.20;;;;;;350952;28;1122;-53
2023/09/17 00:59:16;;;;;;;6.68;4.72;;;23.60;56.10;;;;;;351019;28;1457;-53
2023/09/17 00:59:27;;;;;;;6.53;4.57;;;23.60;56.10;;;;;;351030;28;1058;-54
2023/09/17 00:59:39;;;;;;;6.28;4.32;;;23.60;56.00;;;;;;350958;28;1052;-54
2023/09/17 00:59:50;;;;;;;6.25;4.25;;;23.60;55.90;;;;;;351023;28;1059;-53